sensor_id;sensor_type;location;lat;lon;timestamp;P1;durP1;ratioP1;P2;durP2;ratioP2
3843;SDS011;1937;51.444;6.484;2023-07-20T00:01:44;5.20;;;4.13;;
3843;SDS011;1937;51.444;6.484;2023-07-20T00:04:11;7.93;;;4.07;;
3843;SDS011;1937;51.444;6.484;2023-07-20T00:06:38;7.50;;;5.73;;
3843;SDS011;1937;51.444;6.484;2023-07-20T00:09:06;5.53;;;4.20;;
3843;SDS011;1937;51.444;6.484;2023-07-20T00:11:35;8.10;;;4.20;;
3843;SDS011;1937;51.444;6.484;2023-07-20T00:14:04;8.73;;;4.80;;
3843;SDS011;1937;51.444;6.484;2023-07-20T00:16:31;6.67;;;4.60;;
3843;SDS011;1937;51.444;6.484;2023-07-20T00:18:58;4.73;;;4.00;;
3843;SDS011;1937;51.444;6.484;2023-07-20T00:21:25;6.57;;;4.20;;
3843;SDS011;1937;51.444;6.484;2023-07-20T00:23:51;8.20;;;4.80;;
3843;SDS011;1937;51.444;6.484;2023-07-20T00:26:18;5.87;;;4.17;;
3843;SDS011;1937;51.444;6.484;2023-07-20T00:28:44;6.20;;;4.37;;
3843;SDS011;1937;51.444;6.484;2023-07-20T00:31:12;6.50;;;5.13;;
3843;SDS011;1937;51.444;6.484;2023-07-20T00:33:39;8.93;;;4.37;;
3843;SDS011;1937;51.444;6.484;2023-07-20T00:36:05;6.17;;;4.23;;
3843;SDS011;1937;51.444;6.484;2023-07-20T00:38:32;5.10;;;3.73;;
3843;SDS011;1937;51.444;6.484;2023-07-20T00:40:59;5.90;;;3.80;;
3843;SDS011;1937;51.444;6.484;2023-07-20T00:43:25;7.23;;;4.23;;
3843;SDS011;1937;51.444;6.484;2023-07-20T00:45:52;5.27;;;4.27;;
3843;SDS011;1937;51.444;6.484;2023-07-20T00:48:20;6.37;;;4.27;;
3843;SDS011;1937;51.444;6.484;2023-07-20T00:50:46;4.63;;;4.23;;
3843;SDS011;1937;51.444;6.484;2023-07-20T00:53:14;6.07;;;4.30;;
3843;SDS011;1937;51.444;6.484;2023-07-20T00:55:40;7.67;;;5.13;;
3843;SDS011;1937;51.444;6.484;2023-07-20T00:58:07;6.00;;;4.63;;
3843;SDS011;1937;51.444;6.484;2023-07-20T01:00:34;6.27;;;4.70;;
3843;SDS011;1937;51.444;6.484;2023-07-20T01:03:01;6.80;;;5.00;;
3843;SDS011;1937;51.444;6.484;2023-07-20T01:05:40;6.00;;;4.60;;
3843;SDS011;1937;51.444;6.484;2023-07-20T01:08:12;9.17;;;5.17;;
3843;SDS011;1937;51.444;6.484;2023-07-20T01:10:46;8.57;;;5.33;;
3843;SDS011;1937;51.444;6.484;2023-07-20T01:13:17;18.13;;;5.90;;
3843;SDS011;1937;51.444;6.484;2023-07-20T01:15:48;12.43;;;6.27;;
3843;SDS011;1937;51.444;6.484;2023-07-20T01:18:16;10.67;;;6.40;;
3843;SDS011;1937;51.444;6.484;2023-07-20T01:20:44;11.10;;;5.70;;
3843;SDS011;1937;51.444;6.484;2023-07-20T01:26:37;11.03;;;7.53;;
3843;SDS011;1937;51.444;6.484;2023-07-20T01:29:26;13.00;;;7.70;;
3843;SDS011;1937;51.444;6.484;2023-07-20T01:32:02;12.17;;;6.90;;
3843;SDS011;1937;51.444;6.484;2023-07-20T01:34:32;10.53;;;7.03;;
3843;SDS011;1937;51.444;6.484;2023-07-20T01:37:01;14.10;;;8.13;;
3843;SDS011;1937;51.444;6.484;2023-07-20T01:39:30;18.60;;;8.10;;
3843;SDS011;1937;51.444;6.484;2023-07-20T01:41:58;14.67;;;6.43;;
3843;SDS011;1937;51.444;6.484;2023-07-20T01:44:25;12.23;;;6.47;;
3843;SDS011;1937;51.444;6.484;2023-07-20T01:46:52;18.70;;;7.00;;
3843;SDS011;1937;51.444;6.484;2023-07-20T01:49:19;15.13;;;7.23;;
3843;SDS011;1937;51.444;6.484;2023-07-20T01:51:46;10.37;;;7.20;;
3843;SDS011;1937;51.444;6.484;2023-07-20T01:54:13;9.30;;;6.90;;
3843;SDS011;1937;51.444;6.484;2023-07-20T01:56:39;13.57;;;6.60;;
3843;SDS011;1937;51.444;6.484;2023-07-20T01:59:06;15.80;;;7.67;;
3843;SDS011;1937;51.444;6.484;2023-07-20T02:01:32;12.13;;;6.40;;
3843;SDS011;1937;51.444;6.484;2023-07-20T02:03:59;11.03;;;7.53;;
3843;SDS011;1937;51.444;6.484;2023-07-20T02:06:27;11.90;;;7.30;;
3843;SDS011;1937;51.444;6.484;2023-07-20T02:08:53;10.80;;;6.93;;
3843;SDS011;1937;51.444;6.484;2023-07-20T02:11:20;14.00;;;8.10;;
3843;SDS011;1937;51.444;6.484;2023-07-20T02:13:46;14.20;;;7.20;;
3843;SDS011;1937;51.444;6.484;2023-07-20T02:16:13;11.30;;;7.23;;
3843;SDS011;1937;51.444;6.484;2023-07-20T02:18:40;16.97;;;8.10;;
3843;SDS011;1937;51.444;6.484;2023-07-20T02:21:06;11.90;;;7.40;;
3843;SDS011;1937;51.444;6.484;2023-07-20T02:23:34;17.50;;;8.83;;
3843;SDS011;1937;51.444;6.484;2023-07-20T02:26:01;17.73;;;7.73;;
3843;SDS011;1937;51.444;6.484;2023-07-20T02:28:27;16.70;;;8.37;;
3843;SDS011;1937;51.444;6.484;2023-07-20T02:30:54;11.10;;;7.57;;
3843;SDS011;1937;51.444;6.484;2023-07-20T02:33:21;12.70;;;7.23;;
3843;SDS011;1937;51.444;6.484;2023-07-20T02:35:47;13.73;;;7.33;;
3843;SDS011;1937;51.444;6.484;2023-07-20T02:38:14;11.37;;;7.53;;
3843;SDS011;1937;51.444;6.484;2023-07-20T02:40:42;13.17;;;8.00;;
3843;SDS011;1937;51.444;6.484;2023-07-20T02:43:09;14.53;;;9.40;;
3843;SDS011;1937;51.444;6.484;2023-07-20T02:45:35;19.17;;;7.90;;
3843;SDS011;1937;51.444;6.484;2023-07-20T02:48:06;17.83;;;8.60;;
3843;SDS011;1937;51.444;6.484;2023-07-20T02:50:33;15.33;;;9.03;;
3843;SDS011;1937;51.444;6.484;2023-07-20T02:53:00;13.27;;;8.13;;
3843;SDS011;1937;51.444;6.484;2023-07-20T02:55:27;17.63;;;8.37;;
3843;SDS011;1937;51.444;6.484;2023-07-20T02:57:55;15.70;;;9.07;;
3843;SDS011;1937;51.444;6.484;2023-07-20T03:00:22;16.23;;;8.33;;
3843;SDS011;1937;51.444;6.484;2023-07-20T03:02:49;13.83;;;8.90;;
3843;SDS011;1937;51.444;6.484;2023-07-20T03:05:20;18.53;;;9.00;;
3843;SDS011;1937;51.444;6.484;2023-07-20T03:07:47;12.93;;;8.47;;
3843;SDS011;1937;51.444;6.484;2023-07-20T03:10:14;13.20;;;8.53;;
3843;SDS011;1937;51.444;6.484;2023-07-20T03:12:40;19.73;;;9.60;;
3843;SDS011;1937;51.444;6.484;2023-07-20T03:15:09;14.80;;;8.80;;
3843;SDS011;1937;51.444;6.484;2023-07-20T03:17:36;14.67;;;9.07;;
3843;SDS011;1937;51.444;6.484;2023-07-20T03:20:03;15.53;;;8.97;;
3843;SDS011;1937;51.444;6.484;2023-07-20T03:22:34;21.53;;;9.80;;
3843;SDS011;1937;51.444;6.484;2023-07-20T03:25:00;19.77;;;8.07;;
3843;SDS011;1937;51.444;6.484;2023-07-20T03:27:27;21.00;;;9.00;;
3843;SDS011;1937;51.444;6.484;2023-07-20T03:29:54;16.93;;;9.43;;
3843;SDS011;1937;51.444;6.484;2023-07-20T03:32:22;17.17;;;9.83;;
3843;SDS011;1937;51.444;6.484;2023-07-20T03:34:49;15.43;;;9.60;;
3843;SDS011;1937;51.444;6.484;2023-07-20T03:37:15;19.03;;;10.37;;
3843;SDS011;1937;51.444;6.484;2023-07-20T03:39:42;15.43;;;8.97;;
3843;SDS011;1937;51.444;6.484;2023-07-20T03:42:08;16.27;;;8.97;;
3843;SDS011;1937;51.444;6.484;2023-07-20T03:44:35;21.60;;;8.80;;
3843;SDS011;1937;51.444;6.484;2023-07-20T03:47:01;19.03;;;10.40;;
3843;SDS011;1937;51.444;6.484;2023-07-20T03:49:31;17.27;;;9.17;;
3843;SDS011;1937;51.444;6.484;2023-07-20T03:51:57;14.47;;;8.53;;
3843;SDS011;1937;51.444;6.484;2023-07-20T03:54:24;12.63;;;8.90;;
3843;SDS011;1937;51.444;6.484;2023-07-20T03:56:51;20.50;;;9.23;;
3843;SDS011;1937;51.444;6.484;2023-07-20T03:59:17;18.53;;;10.73;;
3843;SDS011;1937;51.444;6.484;2023-07-20T04:01:44;16.20;;;10.37;;
3843;SDS011;1937;51.444;6.484;2023-07-20T04:04:10;15.90;;;11.27;;
3843;SDS011;1937;51.444;6.484;2023-07-20T04:06:38;20.70;;;10.87;;
3843;SDS011;1937;51.444;6.484;2023-07-20T04:09:05;15.93;;;9.60;;
3843;SDS011;1937;51.444;6.484;2023-07-20T04:11:31;20.10;;;9.80;;
3843;SDS011;1937;51.444;6.484;2023-07-20T04:13:58;21.67;;;11.73;;
3843;SDS011;1937;51.444;6.484;2023-07-20T04:16:25;18.87;;;10.60;;
3843;SDS011;1937;51.444;6.484;2023-07-20T04:18:52;16.03;;;9.47;;
3843;SDS011;1937;51.444;6.484;2023-07-20T04:21:21;17.50;;;11.00;;
3843;SDS011;1937;51.444;6.484;2023-07-20T04:23:49;20.10;;;10.80;;
3843;SDS011;1937;51.444;6.484;2023-07-20T04:26:16;16.30;;;12.10;;
3843;SDS011;1937;51.444;6.484;2023-07-20T04:28:42;16.07;;;12.23;;
3843;SDS011;1937;51.444;6.484;2023-07-20T04:31:09;21.07;;;11.10;;
3843;SDS011;1937;51.444;6.484;2023-07-20T04:33:36;18.93;;;12.63;;
3843;SDS011;1937;51.444;6.484;2023-07-20T04:36:03;18.93;;;11.43;;
3843;SDS011;1937;51.444;6.484;2023-07-20T04:38:30;20.90;;;12.70;;
3843;SDS011;1937;51.444;6.484;2023-07-20T04:40:58;20.93;;;12.80;;
3843;SDS011;1937;51.444;6.484;2023-07-20T04:43:24;17.40;;;12.00;;
3843;SDS011;1937;51.444;6.484;2023-07-20T04:45:52;19.73;;;12.40;;
3843;SDS011;1937;51.444;6.484;2023-07-20T04:48:18;19.70;;;12.50;;
3843;SDS011;1937;51.444;6.484;2023-07-20T04:50:45;20.70;;;12.60;;
3843;SDS011;1937;51.444;6.484;2023-07-20T04:53:12;20.33;;;11.70;;
3843;SDS011;1937;51.444;6.484;2023-07-20T04:55:39;18.60;;;11.07;;
3843;SDS011;1937;51.444;6.484;2023-07-20T04:58:07;19.97;;;12.33;;
3843;SDS011;1937;51.444;6.484;2023-07-20T05:00:34;24.33;;;11.50;;
3843;SDS011;1937;51.444;6.484;2023-07-20T05:03:01;23.20;;;11.57;;
3843;SDS011;1937;51.444;6.484;2023-07-20T05:05:30;17.20;;;10.53;;
3843;SDS011;1937;51.444;6.484;2023-07-20T05:07:57;16.73;;;10.50;;
3843;SDS011;1937;51.444;6.484;2023-07-20T05:10:23;24.43;;;10.17;;
3843;SDS011;1937;51.444;6.484;2023-07-20T05:12:50;19.10;;;11.30;;
3843;SDS011;1937;51.444;6.484;2023-07-20T05:15:18;15.17;;;10.13;;
3843;SDS011;1937;51.444;6.484;2023-07-20T05:17:44;15.17;;;9.87;;
3843;SDS011;1937;51.444;6.484;2023-07-20T05:20:13;14.87;;;9.83;;
3843;SDS011;1937;51.444;6.484;2023-07-20T05:22:40;14.27;;;9.67;;
3843;SDS011;1937;51.444;6.484;2023-07-20T05:25:08;16.23;;;9.37;;
3843;SDS011;1937;51.444;6.484;2023-07-20T05:27:36;11.67;;;8.20;;
3843;SDS011;1937;51.444;6.484;2023-07-20T05:30:03;13.90;;;7.30;;
3843;SDS011;1937;51.444;6.484;2023-07-20T05:32:33;10.97;;;7.93;;
3843;SDS011;1937;51.444;6.484;2023-07-20T05:35:00;10.53;;;7.80;;
3843;SDS011;1937;51.444;6.484;2023-07-20T05:37:27;10.47;;;7.57;;
3843;SDS011;1937;51.444;6.484;2023-07-20T05:39:53;9.70;;;7.03;;
3843;SDS011;1937;51.444;6.484;2023-07-20T05:42:20;9.80;;;6.60;;
3843;SDS011;1937;51.444;6.484;2023-07-20T05:44:47;9.93;;;6.80;;
3843;SDS011;1937;51.444;6.484;2023-07-20T05:47:14;11.37;;;6.57;;
3843;SDS011;1937;51.444;6.484;2023-07-20T05:49:43;11.43;;;6.93;;
3843;SDS011;1937;51.444;6.484;2023-07-20T05:52:09;7.60;;;6.10;;
3843;SDS011;1937;51.444;6.484;2023-07-20T05:54:36;10.57;;;7.40;;
3843;SDS011;1937;51.444;6.484;2023-07-20T05:57:03;7.83;;;6.10;;
3843;SDS011;1937;51.444;6.484;2023-07-20T05:59:30;9.50;;;6.50;;
3843;SDS011;1937;51.444;6.484;2023-07-20T06:01:57;8.10;;;5.90;;
3843;SDS011;1937;51.444;6.484;2023-07-20T06:04:23;7.40;;;6.03;;
3843;SDS011;1937;51.444;6.484;2023-07-20T06:06:51;9.20;;;7.03;;
3843;SDS011;1937;51.444;6.484;2023-07-20T06:09:18;8.97;;;6.53;;
3843;SDS011;1937;51.444;6.484;2023-07-20T06:11:44;10.90;;;6.93;;
3843;SDS011;1937;51.444;6.484;2023-07-20T06:14:11;7.47;;;5.67;;
3843;SDS011;1937;51.444;6.484;2023-07-20T06:16:38;9.60;;;6.30;;
3843;SDS011;1937;51.444;6.484;2023-07-20T06:19:04;8.40;;;6.10;;
3843;SDS011;1937;51.444;6.484;2023-07-20T06:21:31;7.87;;;5.60;;
3843;SDS011;1937;51.444;6.484;2023-07-20T06:23:59;5.10;;;4.60;;
3843;SDS011;1937;51.444;6.484;2023-07-20T06:26:25;7.07;;;5.73;;
3843;SDS011;1937;51.444;6.484;2023-07-20T06:28:52;6.47;;;5.10;;
3843;SDS011;1937;51.444;6.484;2023-07-20T06:31:18;5.43;;;4.13;;
3843;SDS011;1937;51.444;6.484;2023-07-20T06:33:45;5.70;;;4.20;;
3843;SDS011;1937;51.444;6.484;2023-07-20T06:36:11;5.50;;;4.93;;
3843;SDS011;1937;51.444;6.484;2023-07-20T06:38:38;3.53;;;3.23;;
3843;SDS011;1937;51.444;6.484;2023-07-20T06:41:06;6.03;;;3.93;;
3843;SDS011;1937;51.444;6.484;2023-07-20T06:43:33;3.73;;;3.37;;
3843;SDS011;1937;51.444;6.484;2023-07-20T06:46:00;4.40;;;2.90;;
3843;SDS011;1937;51.444;6.484;2023-07-20T06:48:26;5.50;;;2.80;;
3843;SDS011;1937;51.444;6.484;2023-07-20T06:50:53;3.67;;;2.83;;
3843;SDS011;1937;51.444;6.484;2023-07-20T06:53:20;4.70;;;2.53;;
3843;SDS011;1937;51.444;6.484;2023-07-20T06:55:46;5.33;;;3.47;;
3843;SDS011;1937;51.444;6.484;2023-07-20T06:58:15;5.13;;;3.90;;
3843;SDS011;1937;51.444;6.484;2023-07-20T07:00:41;3.43;;;3.00;;
3843;SDS011;1937;51.444;6.484;2023-07-20T07:03:08;3.07;;;2.70;;
3843;SDS011;1937;51.444;6.484;2023-07-20T07:05:35;9.10;;;3.40;;
3843;SDS011;1937;51.444;6.484;2023-07-20T07:08:03;7.13;;;3.00;;
3843;SDS011;1937;51.444;6.484;2023-07-20T07:10:30;4.30;;;2.90;;
3843;SDS011;1937;51.444;6.484;2023-07-20T07:12:56;3.37;;;3.07;;
3843;SDS011;1937;51.444;6.484;2023-07-20T07:15:24;2.60;;;2.37;;
3843;SDS011;1937;51.444;6.484;2023-07-20T07:17:51;2.30;;;2.10;;
3843;SDS011;1937;51.444;6.484;2023-07-20T07:20:18;2.40;;;2.20;;
3843;SDS011;1937;51.444;6.484;2023-07-20T07:22:45;3.93;;;2.43;;
3843;SDS011;1937;51.444;6.484;2023-07-20T07:25:11;4.30;;;2.50;;
3843;SDS011;1937;51.444;6.484;2023-07-20T07:27:38;2.47;;;1.97;;
3843;SDS011;1937;51.444;6.484;2023-07-20T07:30:05;3.10;;;2.50;;
3843;SDS011;1937;51.444;6.484;2023-07-20T07:32:34;2.53;;;2.20;;
3843;SDS011;1937;51.444;6.484;2023-07-20T07:35:01;5.17;;;2.10;;
3843;SDS011;1937;51.444;6.484;2023-07-20T07:37:27;2.40;;;2.20;;
3843;SDS011;1937;51.444;6.484;2023-07-20T07:39:54;2.20;;;2.00;;
3843;SDS011;1937;51.444;6.484;2023-07-20T07:42:21;3.70;;;2.00;;
3843;SDS011;1937;51.444;6.484;2023-07-20T07:44:47;4.80;;;2.30;;
3843;SDS011;1937;51.444;6.484;2023-07-20T07:47:14;1.87;;;1.67;;
3843;SDS011;1937;51.444;6.484;2023-07-20T07:49:42;2.23;;;1.83;;
3843;SDS011;1937;51.444;6.484;2023-07-20T07:52:09;3.47;;;2.10;;
3843;SDS011;1937;51.444;6.484;2023-07-20T07:54:35;3.00;;;1.83;;
3843;SDS011;1937;51.444;6.484;2023-07-20T07:57:02;1.80;;;1.70;;
3843;SDS011;1937;51.444;6.484;2023-07-20T07:59:29;1.90;;;1.67;;
3843;SDS011;1937;51.444;6.484;2023-07-20T08:02:00;1.93;;;1.80;;
3843;SDS011;1937;51.444;6.484;2023-07-20T08:04:27;3.37;;;1.87;;
3843;SDS011;1937;51.444;6.484;2023-07-20T08:06:55;2.67;;;1.80;;
3843;SDS011;1937;51.444;6.484;2023-07-20T08:09:22;2.70;;;2.00;;
3843;SDS011;1937;51.444;6.484;2023-07-20T08:11:48;4.40;;;2.37;;
3843;SDS011;1937;51.444;6.484;2023-07-20T08:14:15;1.80;;;1.70;;
3843;SDS011;1937;51.444;6.484;2023-07-20T08:16:41;3.73;;;1.90;;
3843;SDS011;1937;51.444;6.484;2023-07-20T08:19:09;3.60;;;1.50;;
3843;SDS011;1937;51.444;6.484;2023-07-20T08:21:35;2.27;;;1.60;;
3843;SDS011;1937;51.444;6.484;2023-07-20T08:24:03;2.37;;;1.70;;
3843;SDS011;1937;51.444;6.484;2023-07-20T08:26:30;1.33;;;1.23;;
3843;SDS011;1937;51.444;6.484;2023-07-20T08:28:57;1.60;;;1.50;;
3843;SDS011;1937;51.444;6.484;2023-07-20T08:31:23;1.47;;;1.30;;
3843;SDS011;1937;51.444;6.484;2023-07-20T08:33:50;2.07;;;1.10;;
3843;SDS011;1937;51.444;6.484;2023-07-20T08:36:16;1.93;;;1.30;;
3843;SDS011;1937;51.444;6.484;2023-07-20T08:38:43;1.67;;;1.53;;
3843;SDS011;1937;51.444;6.484;2023-07-20T08:41:11;2.37;;;1.50;;
3843;SDS011;1937;51.444;6.484;2023-07-20T08:43:38;1.47;;;1.37;;
3843;SDS011;1937;51.444;6.484;2023-07-20T08:46:08;2.10;;;1.50;;
3843;SDS011;1937;51.444;6.484;2023-07-20T08:48:38;5.30;;;1.63;;
3843;SDS011;1937;51.444;6.484;2023-07-20T08:51:06;1.50;;;1.37;;
3843;SDS011;1937;51.444;6.484;2023-07-20T08:53:33;1.93;;;1.40;;
3843;SDS011;1937;51.444;6.484;2023-07-20T08:56:00;1.70;;;1.10;;
3843;SDS011;1937;51.444;6.484;2023-07-20T08:58:29;1.70;;;1.30;;
3843;SDS011;1937;51.444;6.484;2023-07-20T09:00:57;1.50;;;1.30;;
3843;SDS011;1937;51.444;6.484;2023-07-20T09:03:25;1.40;;;1.30;;
3843;SDS011;1937;51.444;6.484;2023-07-20T09:05:52;3.50;;;1.27;;
3843;SDS011;1937;51.444;6.484;2023-07-20T09:08:20;1.97;;;1.77;;
3843;SDS011;1937;51.444;6.484;2023-07-20T09:10:46;1.40;;;1.30;;
3843;SDS011;1937;51.444;6.484;2023-07-20T09:13:14;1.67;;;1.57;;
3843;SDS011;1937;51.444;6.484;2023-07-20T09:15:46;1.40;;;1.30;;
3843;SDS011;1937;51.444;6.484;2023-07-20T09:18:14;2.47;;;1.67;;
3843;SDS011;1937;51.444;6.484;2023-07-20T09:20:50;1.50;;;1.40;;
3843;SDS011;1937;51.444;6.484;2023-07-20T09:23:16;2.70;;;1.80;;
3843;SDS011;1937;51.444;6.484;2023-07-20T09:25:43;1.43;;;1.33;;
3843;SDS011;1937;51.444;6.484;2023-07-20T09:28:11;2.43;;;1.20;;
3843;SDS011;1937;51.444;6.484;2023-07-20T09:30:37;1.27;;;1.17;;
3843;SDS011;1937;51.444;6.484;2023-07-20T09:33:05;1.20;;;1.10;;
3843;SDS011;1937;51.444;6.484;2023-07-20T09:35:44;2.93;;;1.27;;
3843;SDS011;1937;51.444;6.484;2023-07-20T09:38:10;1.87;;;1.30;;
3843;SDS011;1937;51.444;6.484;2023-07-20T09:40:37;1.20;;;1.10;;
3843;SDS011;1937;51.444;6.484;2023-07-20T09:43:07;1.30;;;1.20;;
3843;SDS011;1937;51.444;6.484;2023-07-20T09:45:34;1.13;;;0.90;;
3843;SDS011;1937;51.444;6.484;2023-07-20T09:48:07;1.40;;;1.30;;
3843;SDS011;1937;51.444;6.484;2023-07-20T09:50:34;1.50;;;1.20;;
3843;SDS011;1937;51.444;6.484;2023-07-20T09:53:07;2.33;;;1.23;;
3843;SDS011;1937;51.444;6.484;2023-07-20T09:55:35;1.20;;;1.10;;
3843;SDS011;1937;51.444;6.484;2023-07-20T09:58:03;1.20;;;1.10;;
3843;SDS011;1937;51.444;6.484;2023-07-20T10:00:32;2.00;;;1.80;;
3843;SDS011;1937;51.444;6.484;2023-07-20T10:03:00;1.63;;;1.30;;
3843;SDS011;1937;51.444;6.484;2023-07-20T10:05:30;1.67;;;1.30;;
3843;SDS011;1937;51.444;6.484;2023-07-20T10:08:00;1.50;;;1.00;;
3843;SDS011;1937;51.444;6.484;2023-07-20T10:10:29;1.30;;;1.20;;
3843;SDS011;1937;51.444;6.484;2023-07-20T10:12:58;1.30;;;1.10;;
3843;SDS011;1937;51.444;6.484;2023-07-20T10:15:28;1.63;;;1.53;;
3843;SDS011;1937;51.444;6.484;2023-07-20T10:17:59;1.73;;;1.10;;
3843;SDS011;1937;51.444;6.484;2023-07-20T10:20:36;1.93;;;1.20;;
3843;SDS011;1937;51.444;6.484;2023-07-20T10:23:06;1.30;;;1.00;;
3843;SDS011;1937;51.444;6.484;2023-07-20T10:25:33;2.00;;;1.20;;
3843;SDS011;1937;51.444;6.484;2023-07-20T10:28:03;1.30;;;1.20;;
3843;SDS011;1937;51.444;6.484;2023-07-20T10:30:30;1.37;;;1.20;;
3843;SDS011;1937;51.444;6.484;2023-07-20T10:32:58;3.00;;;1.53;;
3843;SDS011;1937;51.444;6.484;2023-07-20T10:35:27;1.30;;;1.20;;
3843;SDS011;1937;51.444;6.484;2023-07-20T10:37:59;1.97;;;1.40;;
3843;SDS011;1937;51.444;6.484;2023-07-20T10:40:27;1.90;;;1.40;;
3843;SDS011;1937;51.444;6.484;2023-07-20T10:43:01;1.60;;;1.00;;
3843;SDS011;1937;51.444;6.484;2023-07-20T10:45:37;1.83;;;1.00;;
3843;SDS011;1937;51.444;6.484;2023-07-20T10:48:12;1.63;;;1.20;;
3843;SDS011;1937;51.444;6.484;2023-07-20T10:50:41;2.13;;;1.00;;
3843;SDS011;1937;51.444;6.484;2023-07-20T10:53:12;1.97;;;1.10;;
3843;SDS011;1937;51.444;6.484;2023-07-20T10:55:40;1.00;;;0.90;;
3843;SDS011;1937;51.444;6.484;2023-07-20T10:58:09;1.03;;;0.93;;
3843;SDS011;1937;51.444;6.484;2023-07-20T11:00:37;1.83;;;1.10;;
3843;SDS011;1937;51.444;6.484;2023-07-20T11:03:04;1.20;;;1.10;;
3843;SDS011;1937;51.444;6.484;2023-07-20T11:05:32;1.10;;;1.00;;
3843;SDS011;1937;51.444;6.484;2023-07-20T11:07:59;2.50;;;1.30;;
3843;SDS011;1937;51.444;6.484;2023-07-20T11:10:28;1.63;;;1.10;;
3843;SDS011;1937;51.444;6.484;2023-07-20T11:15:48;2.93;;;1.27;;
3843;SDS011;1937;51.444;6.484;2023-07-20T11:18:28;1.93;;;1.37;;
3843;SDS011;1937;51.444;6.484;2023-07-20T11:20:57;0.90;;;0.90;;
3843;SDS011;1937;51.444;6.484;2023-07-20T11:23:24;1.60;;;1.20;;
3843;SDS011;1937;51.444;6.484;2023-07-20T11:25:52;1.80;;;1.60;;
3843;SDS011;1937;51.444;6.484;2023-07-20T11:28:19;2.20;;;1.97;;
3843;SDS011;1937;51.444;6.484;2023-07-20T11:30:49;1.97;;;1.20;;
3843;SDS011;1937;51.444;6.484;2023-07-20T11:33:18;2.60;;;1.20;;
3843;SDS011;1937;51.444;6.484;2023-07-20T11:35:44;1.13;;;1.03;;
3843;SDS011;1937;51.444;6.484;2023-07-20T11:38:11;2.03;;;1.10;;
3843;SDS011;1937;51.444;6.484;2023-07-20T11:40:42;2.87;;;1.20;;
3843;SDS011;1937;51.444;6.484;2023-07-20T11:43:09;1.40;;;1.30;;
3843;SDS011;1937;51.444;6.484;2023-07-20T11:45:37;0.93;;;0.93;;
3843;SDS011;1937;51.444;6.484;2023-07-20T11:48:04;4.93;;;1.50;;
3843;SDS011;1937;51.444;6.484;2023-07-20T11:50:31;1.00;;;0.83;;
3843;SDS011;1937;51.444;6.484;2023-07-20T11:52:58;1.73;;;1.23;;
3843;SDS011;1937;51.444;6.484;2023-07-20T11:55:25;1.10;;;1.00;;
3843;SDS011;1937;51.444;6.484;2023-07-20T11:58:01;2.80;;;1.30;;
3843;SDS011;1937;51.444;6.484;2023-07-20T12:00:29;1.23;;;1.13;;
3843;SDS011;1937;51.444;6.484;2023-07-20T12:02:57;1.67;;;1.30;;
3843;SDS011;1937;51.444;6.484;2023-07-20T12:05:23;1.27;;;1.17;;
3843;SDS011;1937;51.444;6.484;2023-07-20T12:07:51;1.47;;;1.33;;
3843;SDS011;1937;51.444;6.484;2023-07-20T12:10:23;1.10;;;1.00;;
3843;SDS011;1937;51.444;6.484;2023-07-20T12:12:51;3.30;;;1.17;;
3843;SDS011;1937;51.444;6.484;2023-07-20T12:15:19;1.20;;;1.10;;
3843;SDS011;1937;51.444;6.484;2023-07-20T12:17:50;1.83;;;1.07;;
3843;SDS011;1937;51.444;6.484;2023-07-20T12:20:27;1.20;;;1.10;;
3843;SDS011;1937;51.444;6.484;2023-07-20T12:22:56;1.33;;;1.17;;
3843;SDS011;1937;51.444;6.484;2023-07-20T12:25:37;1.37;;;1.13;;
3843;SDS011;1937;51.444;6.484;2023-07-20T12:28:05;1.20;;;1.10;;
3843;SDS011;1937;51.444;6.484;2023-07-20T12:30:33;1.80;;;0.90;;
3843;SDS011;1937;51.444;6.484;2023-07-20T12:33:01;1.13;;;1.03;;
3843;SDS011;1937;51.444;6.484;2023-07-20T12:35:29;2.10;;;1.23;;
3843;SDS011;1937;51.444;6.484;2023-07-20T12:37:56;2.00;;;1.23;;
3843;SDS011;1937;51.444;6.484;2023-07-20T12:40:23;1.20;;;1.10;;
3843;SDS011;1937;51.444;6.484;2023-07-20T12:42:49;2.00;;;1.20;;
3843;SDS011;1937;51.444;6.484;2023-07-20T12:45:16;1.30;;;1.10;;
3843;SDS011;1937;51.444;6.484;2023-07-20T12:47:43;1.00;;;0.90;;
3843;SDS011;1937;51.444;6.484;2023-07-20T12:50:11;1.63;;;1.53;;
3843;SDS011;1937;51.444;6.484;2023-07-20T12:52:38;1.10;;;1.00;;
3843;SDS011;1937;51.444;6.484;2023-07-20T12:55:06;1.57;;;1.20;;
3843;SDS011;1937;51.444;6.484;2023-07-20T12:57:34;1.53;;;1.10;;
3843;SDS011;1937;51.444;6.484;2023-07-20T13:00:02;1.67;;;1.30;;
3843;SDS011;1937;51.444;6.484;2023-07-20T13:02:29;0.90;;;0.90;;
3843;SDS011;1937;51.444;6.484;2023-07-20T13:04:56;1.20;;;1.10;;
3843;SDS011;1937;51.444;6.484;2023-07-20T13:07:30;2.47;;;1.20;;
3843;SDS011;1937;51.444;6.484;2023-07-20T13:09:57;1.53;;;1.27;;
3843;SDS011;1937;51.444;6.484;2023-07-20T13:12:25;0.90;;;0.90;;
3843;SDS011;1937;51.444;6.484;2023-07-20T13:14:52;0.87;;;0.87;;
3843;SDS011;1937;51.444;6.484;2023-07-20T13:17:19;1.30;;;1.20;;
3843;SDS011;1937;51.444;6.484;2023-07-20T13:19:45;1.67;;;1.00;;
3843;SDS011;1937;51.444;6.484;2023-07-20T13:22:12;1.47;;;1.37;;
3843;SDS011;1937;51.444;6.484;2023-07-20T13:24:41;2.13;;;1.30;;
3843;SDS011;1937;51.444;6.484;2023-07-20T13:27:07;2.40;;;1.10;;
3843;SDS011;1937;51.444;6.484;2023-07-20T13:29:34;1.00;;;1.00;;
3843;SDS011;1937;51.444;6.484;2023-07-20T13:32:01;1.53;;;1.10;;
3843;SDS011;1937;51.444;6.484;2023-07-20T13:34:29;2.37;;;1.33;;
3843;SDS011;1937;51.444;6.484;2023-07-20T13:36:55;1.20;;;1.10;;
3843;SDS011;1937;51.444;6.484;2023-07-20T13:39:22;1.30;;;1.20;;
3843;SDS011;1937;51.444;6.484;2023-07-20T13:41:53;2.20;;;1.20;;
3843;SDS011;1937;51.444;6.484;2023-07-20T13:44:20;1.40;;;1.30;;
3843;SDS011;1937;51.444;6.484;2023-07-20T13:46:46;3.30;;;1.27;;
3843;SDS011;1937;51.444;6.484;2023-07-20T13:49:13;1.57;;;1.40;;
3843;SDS011;1937;51.444;6.484;2023-07-20T13:51:40;2.70;;;1.30;;
3843;SDS011;1937;51.444;6.484;2023-07-20T13:54:07;1.73;;;1.37;;
3843;SDS011;1937;51.444;6.484;2023-07-20T13:56:34;1.40;;;1.30;;
3843;SDS011;1937;51.444;6.484;2023-07-20T13:59:02;1.47;;;1.23;;
3843;SDS011;1937;51.444;6.484;2023-07-20T14:01:29;1.60;;;1.50;;
3843;SDS011;1937;51.444;6.484;2023-07-20T14:03:58;1.10;;;1.00;;
3843;SDS011;1937;51.444;6.484;2023-07-20T14:06:24;2.00;;;1.43;;
3843;SDS011;1937;51.444;6.484;2023-07-20T14:08:51;1.20;;;1.10;;
3843;SDS011;1937;51.444;6.484;2023-07-20T14:11:18;1.43;;;1.27;;
3843;SDS011;1937;51.444;6.484;2023-07-20T14:13:45;1.30;;;1.20;;
3843;SDS011;1937;51.444;6.484;2023-07-20T14:16:13;3.00;;;1.20;;
3843;SDS011;1937;51.444;6.484;2023-07-20T14:18:39;1.63;;;1.40;;
3843;SDS011;1937;51.444;6.484;2023-07-20T14:21:06;2.20;;;1.20;;
3843;SDS011;1937;51.444;6.484;2023-07-20T14:23:33;6.03;;;4.23;;
3843;SDS011;1937;51.444;6.484;2023-07-20T14:26:01;1.90;;;1.30;;
3843;SDS011;1937;51.444;6.484;2023-07-20T14:28:30;2.40;;;1.53;;
3843;SDS011;1937;51.444;6.484;2023-07-20T14:30:56;2.13;;;1.37;;
3843;SDS011;1937;51.444;6.484;2023-07-20T14:33:24;1.10;;;1.00;;
3843;SDS011;1937;51.444;6.484;2023-07-20T14:35:51;2.17;;;1.20;;
3843;SDS011;1937;51.444;6.484;2023-07-20T14:38:18;1.40;;;1.30;;
3843;SDS011;1937;51.444;6.484;2023-07-20T14:40:44;1.40;;;1.30;;
3843;SDS011;1937;51.444;6.484;2023-07-20T14:43:11;1.80;;;1.50;;
3843;SDS011;1937;51.444;6.484;2023-07-20T14:45:39;1.30;;;1.20;;
3843;SDS011;1937;51.444;6.484;2023-07-20T14:48:06;1.40;;;1.30;;
3843;SDS011;1937;51.444;6.484;2023-07-20T14:50:34;1.53;;;1.43;;
3843;SDS011;1937;51.444;6.484;2023-07-20T14:53:01;3.23;;;1.50;;
3843;SDS011;1937;51.444;6.484;2023-07-20T14:55:28;2.33;;;1.50;;
3843;SDS011;1937;51.444;6.484;2023-07-20T14:57:54;5.47;;;1.40;;
3843;SDS011;1937;51.444;6.484;2023-07-20T15:00:21;3.43;;;1.47;;
3843;SDS011;1937;51.444;6.484;2023-07-20T15:02:48;1.80;;;1.70;;
3843;SDS011;1937;51.444;6.484;2023-07-20T15:05:20;2.60;;;1.40;;
3843;SDS011;1937;51.444;6.484;2023-07-20T15:07:48;1.73;;;1.63;;
3843;SDS011;1937;51.444;6.484;2023-07-20T15:10:15;2.50;;;1.57;;
3843;SDS011;1937;51.444;6.484;2023-07-20T15:12:42;2.10;;;1.53;;
3843;SDS011;1937;51.444;6.484;2023-07-20T15:15:10;1.73;;;1.63;;
3843;SDS011;1937;51.444;6.484;2023-07-20T15:17:38;2.03;;;1.60;;
3843;SDS011;1937;51.444;6.484;2023-07-20T15:20:06;2.93;;;1.60;;